Terminal Aerodrome Forecast
Issued by NWS

Home | Current Version | Previous Version | Text Only | Print | Product List | Glossary On
Versions: 1 2 3 4 5 6 7 8 9 10 11 12 13 14
000
FTUS41 KPBZ 281734
TAFBVI
TAF
KBVI 281734Z 2818/2918 VRB03KT P6SM SCT050 BKN200
     FM282200 28005KT P6SM VCTS BKN040CB
     FM290000 32003KT P6SM BKN150=

USA.gov is the U.S. government's official web portal to all federal, state and local government web resources and services.